createdAt,value
2023-04-05T00:01:13.969Z,-1.08
2023-04-05T00:03:42.739Z,-0.97
2023-04-05T00:06:13.434Z,-0.93
2023-04-05T00:08:41.199Z,-0.95
2023-04-05T00:11:07.713Z,-0.89
2023-04-05T00:13:34.217Z,-0.88
2023-04-05T00:16:01.551Z,-0.81
2023-04-05T00:18:28.243Z,-0.84
2023-04-05T00:20:54.695Z,-1.06
2023-04-05T00:23:23.145Z,-0.84
2023-04-05T00:25:50.715Z,-1.01
2023-04-05T00:28:17.248Z,-1.13
2023-04-05T00:30:44.831Z,-1.18
2023-04-05T00:33:15.177Z,-1.28
2023-04-05T00:35:41.904Z,-1.45
2023-04-05T00:38:08.493Z,-1.46
2023-04-05T00:40:36.362Z,-1.53
2023-04-05T00:43:03.104Z,-1.53
2023-04-05T00:45:29.619Z,-1.53
2023-04-05T00:47:56.757Z,-1.56
2023-04-05T00:50:24.265Z,-1.57
2023-04-05T00:52:51.745Z,-1.47
2023-04-05T00:55:19.475Z,-1.47
2023-04-05T00:57:46.033Z,-1.71
2023-04-05T01:00:15.190Z,-1.77
2023-04-05T01:02:49.793Z,-1.83
2023-04-05T01:05:42.565Z,-1.84
2023-04-05T01:08:20.593Z,-1.86
2023-04-05T01:10:55.010Z,-1.94
2023-04-05T01:13:23.040Z,-1.90
2023-04-05T01:15:49.561Z,-1.99
2023-04-05T01:18:16.138Z,-2.06
2023-04-05T01:20:53.011Z,-2.05
2023-04-05T01:23:44.098Z,-2.01
2023-04-05T01:26:39.968Z,-1.99
2023-04-05T01:29:34.937Z,-1.90
2023-04-05T01:32:43.488Z,-1.95
2023-04-05T01:35:33.009Z,-1.93
2023-04-05T01:38:04.908Z,-1.83
2023-04-05T01:40:32.878Z,-1.79
2023-04-05T01:43:03.139Z,-1.82
2023-04-05T01:45:29.664Z,-1.87
2023-04-05T01:47:56.291Z,-1.74
2023-04-05T01:50:23.172Z,-1.86
2023-04-05T01:52:50.714Z,-1.98
2023-04-05T01:55:17.272Z,-2.06
2023-04-05T01:57:43.956Z,-1.92
2023-04-05T02:00:12.224Z,-2.26
2023-04-05T02:02:41.615Z,-2.10
2023-04-05T02:05:09.370Z,-2.23
2023-04-05T02:07:36.288Z,-2.24
2023-04-05T02:10:03.874Z,-2.24
2023-04-05T02:12:30.532Z,-2.36
2023-04-05T02:14:58.684Z,-2.79
2023-04-05T02:17:25.809Z,-2.32
2023-04-05T02:19:53.414Z,-2.30
2023-04-05T02:22:20.257Z,-2.29
2023-04-05T02:24:46.889Z,-2.21
2023-04-05T02:27:13.648Z,-2.27
2023-04-05T02:29:40.732Z,-2.33
2023-04-05T02:32:07.879Z,-2.29
2023-04-05T02:34:34.458Z,-2.21
2023-04-05T02:37:01.951Z,-2.20
2023-04-05T02:39:29.680Z,-2.22
2023-04-05T02:41:56.920Z,-2.35
2023-04-05T02:44:23.789Z,-2.27
2023-04-05T02:46:53.493Z,-2.22
2023-04-05T02:49:27.036Z,-2.31
2023-04-05T02:51:58.724Z,-2.35
2023-04-05T02:54:25.650Z,-2.40
2023-04-05T02:56:58.244Z,-2.39
2023-04-05T02:59:29.039Z,-2.28
2023-04-05T03:01:56.096Z,-2.22
2023-04-05T03:04:27.080Z,-2.32
2023-04-05T03:07:02.771Z,-2.84
2023-04-05T03:09:34.501Z,-2.56
2023-04-05T03:12:06.006Z,-2.52
2023-04-05T03:14:36.734Z,-2.54
2023-04-05T03:17:03.482Z,-2.90
2023-04-05T03:19:38.650Z,-2.73
2023-04-05T03:22:16.105Z,-2.60
2023-04-05T03:24:43.670Z,-2.69
2023-04-05T03:27:15.318Z,-2.65
2023-04-05T03:30:01.170Z,-2.85
2023-04-05T03:32:29.484Z,-2.92
2023-04-05T03:35:04.247Z,-2.95
2023-04-05T03:37:32.795Z,-3.15
2023-04-05T03:40:02.563Z,-2.72
2023-04-05T03:42:29.838Z,-2.90
2023-04-05T03:44:56.494Z,-2.76
2023-04-05T03:47:23.390Z,-2.77
2023-04-05T03:49:52.212Z,-2.79
2023-04-05T03:52:18.711Z,-2.78
2023-04-05T03:54:45.763Z,-2.76
2023-04-05T03:57:16.909Z,-2.72
2023-04-05T03:59:44.730Z,-2.85
2023-04-05T04:02:12.802Z,-2.83
2023-04-05T04:04:39.365Z,-2.83
2023-04-05T04:07:05.961Z,-2.79
2023-04-05T04:09:32.665Z,-2.74
2023-04-05T04:12:06.588Z,-2.69
2023-04-05T04:14:36.576Z,-2.75
2023-04-05T04:17:37.596Z,-2.88
2023-04-05T04:20:16.167Z,-2.94
2023-04-05T04:22:49.898Z,-3.09
2023-04-05T04:25:31.509Z,-3.22
2023-04-05T04:28:25.326Z,-3.21
2023-04-05T04:31:13.901Z,-3.20
2023-04-05T04:34:13.549Z,-3.07
2023-04-05T04:37:01.532Z,-3.25
2023-04-05T04:39:47.682Z,-3.42
2023-04-05T04:42:33.783Z,-3.53
2023-04-05T04:45:07.007Z,-3.49
2023-04-05T04:47:49.859Z,-3.41
2023-04-05T04:50:35.986Z,-3.37
2023-04-05T04:53:03.096Z,-3.32
2023-04-05T04:55:30.515Z,-3.19
2023-04-05T04:57:57.017Z,-3.14
2023-04-05T05:00:24.650Z,-3.15
2023-04-05T05:02:53.018Z,-3.18
2023-04-05T05:05:23.202Z,-3.16
2023-04-05T05:07:50.911Z,-3.11
2023-04-05T05:10:18.965Z,-3.05
2023-04-05T05:12:45.903Z,-3.03
2023-04-05T05:15:14.922Z,-3.22
2023-04-05T05:17:41.740Z,-3.56
2023-04-05T05:20:11.113Z,-3.33
2023-04-05T05:22:40.304Z,-3.39
2023-04-05T05:25:09.039Z,-3.31
2023-04-05T05:27:35.865Z,-3.11
2023-04-05T05:30:02.450Z,-2.95
2023-04-05T05:32:30.743Z,-2.67
2023-04-05T05:34:57.617Z,-2.49
2023-04-05T05:37:32.093Z,-2.13
2023-04-05T05:39:59.282Z,-1.84
2023-04-05T05:42:27.080Z,-1.99
2023-04-05T05:44:54.197Z,-1.23
2023-04-05T05:47:20.963Z,-0.66
2023-04-05T05:49:49.442Z,-0.02
2023-04-05T05:52:16.216Z,0.32
2023-04-05T05:54:42.753Z,1.12
2023-04-05T05:57:09.257Z,1.60
2023-04-05T05:59:36.069Z,2.08
2023-04-05T06:02:02.657Z,2.36
2023-04-05T06:04:29.513Z,2.73
2023-04-05T06:06:58.246Z,3.12
2023-04-05T06:09:25.579Z,3.56
2023-04-05T06:11:56.290Z,3.72
2023-04-05T06:14:23.578Z,4.27
2023-04-05T06:16:50.512Z,4.63
2023-04-05T06:19:16.972Z,4.89
2023-04-05T06:21:43.758Z,5.19
2023-04-05T06:24:10.347Z,5.37
2023-04-05T06:26:36.930Z,5.59
2023-04-05T06:29:03.401Z,5.60
2023-04-05T06:31:35.658Z,5.80
2023-04-05T06:34:02.653Z,5.89
2023-04-05T06:36:32.460Z,5.73
2023-04-05T06:38:59.568Z,5.79
2023-04-05T06:41:30.267Z,5.91
2023-04-05T06:43:56.980Z,5.79
2023-04-05T06:46:24.678Z,6.52
2023-04-05T06:48:52.042Z,6.82
2023-04-05T06:51:18.961Z,6.91
2023-04-05T06:53:45.771Z,7.11
2023-04-05T06:56:12.427Z,7.36
2023-04-05T06:58:38.890Z,7.53
2023-04-05T07:01:06.063Z,7.80
2023-04-05T07:03:32.831Z,7.62
2023-04-05T07:06:00.559Z,7.23
2023-04-05T07:08:28.990Z,7.21
2023-04-05T07:10:55.649Z,7.23
2023-04-05T07:13:23.863Z,7.06
2023-04-05T07:15:51.432Z,7.35
2023-04-05T07:18:19.539Z,7.38
2023-04-05T07:20:49.420Z,7.64
2023-04-05T07:23:16.613Z,7.73
2023-04-05T07:25:44.980Z,7.96
2023-04-05T07:28:12.328Z,8.12
2023-04-05T07:30:38.956Z,8.28
2023-04-05T07:33:05.606Z,8.38
2023-04-05T07:35:33.776Z,8.52
2023-04-05T07:38:00.425Z,8.93
2023-04-05T07:40:28.064Z,9.05
2023-04-05T07:42:54.851Z,9.05
2023-04-05T07:45:21.816Z,9.14
2023-04-05T07:47:48.388Z,9.05
2023-04-05T07:50:15.637Z,9.17
2023-04-05T07:52:42.663Z,9.25
2023-04-05T07:55:10.056Z,9.49
2023-04-05T07:57:36.897Z,9.60
2023-04-05T08:00:05.432Z,9.69
2023-04-05T08:02:39.974Z,9.78
2023-04-05T08:05:07.219Z,9.93
2023-04-05T08:07:33.842Z,10.23
2023-04-05T08:10:01.009Z,10.27
2023-04-05T08:12:28.049Z,10.31
2023-04-05T08:14:54.611Z,9.87
2023-04-05T08:17:21.313Z,9.82
2023-04-05T08:19:49.335Z,10.02
2023-04-05T08:22:17.975Z,10.37
2023-04-05T08:24:44.740Z,10.70
2023-04-05T08:27:11.411Z,11.07
2023-04-05T08:29:38.586Z,11.11
2023-04-05T08:32:05.176Z,10.94
2023-04-05T08:34:31.663Z,10.68
2023-04-05T08:37:00.024Z,9.57
2023-04-05T08:39:26.988Z,8.15
2023-04-05T08:42:29.567Z,7.60
2023-04-05T08:44:58.108Z,6.42
2023-04-05T08:47:25.434Z,6.22
2023-04-05T08:49:52.202Z,6.03
2023-04-05T08:52:19.351Z,6.07
2023-04-05T08:54:46.102Z,6.47
2023-04-05T08:57:18.965Z,6.50
2023-04-05T08:59:46.451Z,6.38
2023-04-05T09:02:19.177Z,6.08
2023-04-05T09:04:48.499Z,6.32
2023-04-05T09:07:15.500Z,6.83
2023-04-05T09:09:49.085Z,7.72
2023-04-05T09:12:15.840Z,6.94
2023-04-05T09:14:44.153Z,7.74
2023-04-05T09:17:11.293Z,8.28
2023-04-05T09:19:38.082Z,8.29
2023-04-05T09:22:06.975Z,8.10
2023-04-05T09:24:44.218Z,7.34
2023-04-05T09:27:14.360Z,6.82
2023-04-05T09:29:51.085Z,7.41
2023-04-05T09:32:20.586Z,7.79
2023-04-05T09:34:48.209Z,6.77
2023-04-05T09:37:27.964Z,7.75
2023-04-05T09:40:03.871Z,7.86
2023-04-05T09:42:34.210Z,8.32
2023-04-05T09:45:02.684Z,7.29
2023-04-05T09:47:36.728Z,7.17
2023-04-05T09:50:15.763Z,6.06
2023-04-05T09:52:43.506Z,6.23
2023-04-05T09:55:10.704Z,6.13
2023-04-05T09:57:38.964Z,6.73
2023-04-05T10:00:09.988Z,6.73
2023-04-05T10:02:41.226Z,6.55
2023-04-05T10:05:13.901Z,7.20
2023-04-05T10:07:41.336Z,7.69
2023-04-05T10:10:12.697Z,7.55
2023-04-05T10:12:41.576Z,7.71
2023-04-05T10:15:09.015Z,7.98
2023-04-05T10:18:08.260Z,8.55
2023-04-05T10:20:40.753Z,8.30
2023-04-05T10:23:12.767Z,8.86
2023-04-05T10:25:53.023Z,8.93
2023-04-05T10:28:48.252Z,9.26
2023-04-05T10:31:39.013Z,9.16
2023-04-05T10:34:16.763Z,8.17
2023-04-05T10:36:58.328Z,8.17
2023-04-05T10:39:40.209Z,8.86
2023-04-05T10:42:13.566Z,9.18
2023-04-05T10:44:42.939Z,9.71
2023-04-05T10:47:14.250Z,9.54
2023-04-05T10:49:45.676Z,8.17
2023-04-05T10:52:13.306Z,7.58
2023-04-05T10:54:40.641Z,8.29
2023-04-05T10:57:10.486Z,8.00
2023-04-05T10:59:42.883Z,7.40
2023-04-05T11:02:10.369Z,7.94
2023-04-05T11:04:41.511Z,7.86
2023-04-05T11:07:16.008Z,7.86
2023-04-05T11:09:53.288Z,8.46
2023-04-05T11:12:19.856Z,8.83
2023-04-05T11:14:46.388Z,9.34
2023-04-05T11:17:29.154Z,9.60
2023-04-05T11:20:05.436Z,9.47
2023-04-05T11:22:34.442Z,8.85
2023-04-05T11:25:03.407Z,9.22
2023-04-05T11:27:38.116Z,8.51
2023-04-05T11:30:06.515Z,7.26
2023-04-05T11:32:43.876Z,6.95
2023-04-05T11:35:14.842Z,7.35
2023-04-05T11:37:54.198Z,7.79
2023-04-05T11:40:29.099Z,8.18
2023-04-05T11:43:10.774Z,7.64
2023-04-05T11:45:39.235Z,8.14
2023-04-05T11:48:13.924Z,8.50
2023-04-05T11:50:42.393Z,7.99
2023-04-05T11:53:16.620Z,7.53
2023-04-05T11:55:48.697Z,7.20
2023-04-05T11:58:21.611Z,7.45
2023-04-05T12:01:01.685Z,6.91
2023-04-05T12:03:30.025Z,6.81
2023-04-05T12:06:02.676Z,7.54
2023-04-05T12:08:42.370Z,8.06
2023-04-05T12:11:11.602Z,8.17
2023-04-05T12:13:39.525Z,7.97
2023-04-05T12:16:07.787Z,8.19
2023-04-05T12:18:37.071Z,7.60
2023-04-05T12:21:08.279Z,7.72
2023-04-05T12:23:36.702Z,7.54
2023-04-05T12:26:04.269Z,6.80
2023-04-05T12:28:53.393Z,7.27
2023-04-05T12:31:42.975Z,7.74
2023-04-05T12:34:10.675Z,8.17
2023-04-05T12:36:38.816Z,7.06
2023-04-05T12:39:10.075Z,7.18
2023-04-05T12:41:37.568Z,7.54
2023-04-05T12:44:15.705Z,7.66
2023-04-05T12:46:47.079Z,7.41
2023-04-05T12:49:16.699Z,6.98
2023-04-05T12:51:47.224Z,7.51
2023-04-05T12:54:15.373Z,7.36
2023-04-05T12:56:42.560Z,7.16
2023-04-05T12:59:09.244Z,7.61
2023-04-05T13:01:35.810Z,7.99
2023-04-05T13:04:15.461Z,8.01
2023-04-05T13:06:43.505Z,7.10
2023-04-05T13:09:10.015Z,7.49
2023-04-05T13:11:36.499Z,7.41
2023-04-05T13:14:03.285Z,7.21
2023-04-05T13:16:29.883Z,7.44
2023-04-05T13:18:56.321Z,7.75
2023-04-05T13:21:22.923Z,7.55
2023-04-05T13:23:49.593Z,7.71
2023-04-05T13:26:16.077Z,7.70
2023-04-05T13:28:42.913Z,7.93
2023-04-05T13:31:09.502Z,7.72
2023-04-05T13:33:35.939Z,7.85
2023-04-05T13:36:02.384Z,8.12
2023-04-05T13:38:29.018Z,8.01
2023-04-05T13:40:55.681Z,7.86
2023-04-05T13:43:23.214Z,7.86
2023-04-05T13:45:50.030Z,7.92
2023-04-05T13:48:17.438Z,7.90
2023-04-05T13:50:44.164Z,8.23
2023-04-05T13:53:10.874Z,8.36
2023-04-05T13:55:38.348Z,8.24
2023-04-05T13:58:05.535Z,8.43
2023-04-05T14:00:32.566Z,8.64
2023-04-05T14:02:59.364Z,8.45
2023-04-05T14:05:26.158Z,8.35
2023-04-05T14:07:52.720Z,8.40
2023-04-05T14:10:21.697Z,7.49
2023-04-05T14:12:48.263Z,7.09
2023-04-05T14:15:15.599Z,7.41
2023-04-05T14:17:42.283Z,7.28
2023-04-05T14:20:09.316Z,6.83
2023-04-05T14:22:36.470Z,7.15
2023-04-05T14:25:04.407Z,7.50
2023-04-05T14:27:30.975Z,7.92
2023-04-05T14:29:57.962Z,7.59
2023-04-05T14:32:25.688Z,7.82
2023-04-05T14:34:52.594Z,7.57
2023-04-05T14:37:19.479Z,7.17
2023-04-05T14:39:47.231Z,7.06
2023-04-05T14:42:14.125Z,7.19
2023-04-05T14:44:41.025Z,7.30
2023-04-05T14:47:07.571Z,7.69
2023-04-05T14:49:34.051Z,7.50
2023-04-05T14:52:00.814Z,7.27
2023-04-05T14:54:27.338Z,7.26
2023-04-05T14:56:53.818Z,7.57
2023-04-05T14:59:20.598Z,7.58
2023-04-05T15:01:47.406Z,7.66
2023-04-05T15:04:14.573Z,7.38
2023-04-05T15:06:42.310Z,7.40
2023-04-05T15:09:09.120Z,7.34
2023-04-05T15:11:40.120Z,7.30
2023-04-05T15:14:08.563Z,7.41
2023-04-05T15:16:38.101Z,7.17
2023-04-05T15:19:04.670Z,7.32
2023-04-05T15:21:31.278Z,7.40
2023-04-05T15:23:58.060Z,7.45
2023-04-05T15:26:26.743Z,7.42
2023-04-05T15:28:53.344Z,7.37
2023-04-05T15:31:20.038Z,7.26
2023-04-05T15:33:46.498Z,7.30
2023-04-05T15:36:13.310Z,7.28
2023-04-05T15:38:39.812Z,7.52
2023-04-05T15:41:08.231Z,7.38
2023-04-05T15:43:34.785Z,7.14
2023-04-05T15:46:01.370Z,7.06
2023-04-05T15:48:28.229Z,7.26
2023-04-05T15:50:55.024Z,7.49
2023-04-05T15:53:21.702Z,7.25
2023-04-05T15:55:48.194Z,7.45
2023-04-05T15:58:14.858Z,7.48
2023-04-05T16:00:42.520Z,7.66
2023-04-05T16:03:09.130Z,7.69
2023-04-05T16:05:36.286Z,7.38
2023-04-05T16:08:02.958Z,7.39
2023-04-05T16:10:29.519Z,6.80
2023-04-05T16:12:56.141Z,7.17
2023-04-05T16:15:22.960Z,6.90
2023-04-05T16:17:49.530Z,7.14
2023-04-05T16:20:17.485Z,7.04
2023-04-05T16:22:45.461Z,7.10
2023-04-05T16:25:12.484Z,7.09
2023-04-05T16:27:39.102Z,6.95
2023-04-05T16:30:06.569Z,7.01
2023-04-05T16:32:33.665Z,6.93
2023-04-05T16:35:03.455Z,6.99
2023-04-05T16:37:30.545Z,6.93
2023-04-05T16:39:56.979Z,6.97
2023-04-05T16:42:23.789Z,6.83
2023-04-05T16:44:50.471Z,6.87
2023-04-05T16:47:17.290Z,6.61
2023-04-05T16:49:43.783Z,6.84
2023-04-05T16:52:10.345Z,6.90
2023-04-05T16:54:36.775Z,6.87
2023-04-05T16:57:03.316Z,6.79
2023-04-05T16:59:29.848Z,6.62
2023-04-05T17:01:56.526Z,6.90
2023-04-05T17:04:22.957Z,6.74
2023-04-05T17:06:49.851Z,6.83
2023-04-05T17:09:16.965Z,6.71
2023-04-05T17:11:43.533Z,6.44
2023-04-05T17:14:10.264Z,6.54
2023-04-05T17:16:37.363Z,6.46
2023-04-05T17:19:04.059Z,6.45
2023-04-05T17:21:31.294Z,6.55
2023-04-05T17:23:58.167Z,6.50
2023-04-05T17:26:24.767Z,6.52
2023-04-05T17:28:53.086Z,6.59
2023-04-05T17:31:19.612Z,6.65
2023-04-05T17:33:48.307Z,6.74
2023-04-05T17:36:16.613Z,6.41
2023-04-05T17:38:43.566Z,6.70
2023-04-05T17:41:10.526Z,6.49
2023-04-05T17:43:37.402Z,6.66
2023-04-05T17:46:04.395Z,6.31
2023-04-05T17:48:33.144Z,6.85
2023-04-05T17:51:05.176Z,6.94
2023-04-05T17:53:31.630Z,6.78
2023-04-05T17:55:59.235Z,6.76
2023-04-05T17:58:26.628Z,6.63
2023-04-05T18:00:53.183Z,6.61
2023-04-05T18:03:20.235Z,6.61
2023-04-05T18:05:54.904Z,6.58
2023-04-05T18:08:22.681Z,6.59
2023-04-05T18:10:58.189Z,6.53
2023-04-05T18:13:25.965Z,6.47
2023-04-05T18:15:57.347Z,6.42
2023-04-05T18:18:24.857Z,6.35
2023-04-05T18:20:52.318Z,6.10
2023-04-05T18:23:22.481Z,6.02
2023-04-05T18:25:49.865Z,6.05
2023-04-05T18:28:22.734Z,5.93
2023-04-05T18:30:51.155Z,5.81
2023-04-05T18:33:17.814Z,5.51
2023-04-05T18:35:50.906Z,5.32
2023-04-05T18:38:18.008Z,5.33
2023-04-05T18:40:44.559Z,5.33
2023-04-05T18:43:12.235Z,5.38
2023-04-05T18:45:39.207Z,5.16
2023-04-05T18:48:06.178Z,4.87
2023-04-05T18:50:33.667Z,4.97
2023-04-05T18:53:00.499Z,5.00
2023-04-05T18:55:26.879Z,5.00
2023-04-05T18:57:54.441Z,5.04
2023-04-05T19:00:21.430Z,4.90
2023-04-05T19:02:47.991Z,5.02
2023-04-05T19:05:14.802Z,4.84
2023-04-05T19:07:41.336Z,4.96
2023-04-05T19:10:08.632Z,4.81
2023-04-05T19:12:35.349Z,4.82
2023-04-05T19:15:02.218Z,4.54
2023-04-05T19:17:28.956Z,4.19
2023-04-05T19:19:55.704Z,4.21
2023-04-05T19:22:22.973Z,4.27
2023-04-05T19:24:49.482Z,4.07
2023-04-05T19:27:16.184Z,3.97
2023-04-05T19:29:42.792Z,4.01
2023-04-05T19:32:09.376Z,4.02
2023-04-05T19:34:38.079Z,3.97
2023-04-05T19:37:04.854Z,3.80
2023-04-05T19:39:33.587Z,3.83
2023-04-05T19:42:00.245Z,3.82
2023-04-05T19:44:46.619Z,3.48
2023-04-05T19:47:13.757Z,3.49
2023-04-05T19:49:42.526Z,3.41
2023-04-05T19:52:12.869Z,3.45
2023-04-05T19:54:42.693Z,3.36
2023-04-05T19:57:09.960Z,3.36
2023-04-05T19:59:36.619Z,3.18
2023-04-05T20:02:13.248Z,3.28
2023-04-05T20:04:42.376Z,3.24
2023-04-05T20:07:08.893Z,3.17
2023-04-05T20:09:37.673Z,3.21
2023-04-05T20:12:06.235Z,3.11
2023-04-05T20:14:45.693Z,2.94
2023-04-05T20:17:13.224Z,2.62
2023-04-05T20:19:42.391Z,2.72
2023-04-05T20:22:10.356Z,2.63
2023-04-05T20:24:39.931Z,2.72
2023-04-05T20:27:06.602Z,2.66
2023-04-05T20:29:33.953Z,2.67
2023-04-05T20:32:01.876Z,2.68
2023-04-05T20:34:31.281Z,2.51
2023-04-05T20:37:00.132Z,2.41
2023-04-05T20:39:27.325Z,2.36
2023-04-05T20:41:55.616Z,2.22
2023-04-05T20:44:23.561Z,2.28
2023-04-05T20:46:51.897Z,2.24
2023-04-05T20:49:19.840Z,2.30
2023-04-05T20:51:50.732Z,2.16
2023-04-05T20:54:17.944Z,2.07
2023-04-05T20:56:44.400Z,1.95
2023-04-05T20:59:11.698Z,1.99
2023-04-05T21:01:38.712Z,1.72
2023-04-05T21:04:05.666Z,1.97
2023-04-05T21:06:32.157Z,2.05
2023-04-05T21:08:58.776Z,1.63
2023-04-05T21:11:26.635Z,1.73
2023-04-05T21:13:54.291Z,1.56
2023-04-05T21:16:21.113Z,1.70
2023-04-05T21:18:47.602Z,1.43
2023-04-05T21:21:14.190Z,1.30
2023-04-05T21:23:40.683Z,1.30
2023-04-05T21:26:07.538Z,1.35
2023-04-05T21:28:34.060Z,1.34
2023-04-05T21:31:01.198Z,1.24
2023-04-05T21:33:27.678Z,1.42
2023-04-05T21:35:54.385Z,1.37
2023-04-05T21:38:20.941Z,1.40
2023-04-05T21:40:49.902Z,1.33
2023-04-05T21:43:16.466Z,1.50
2023-04-05T21:45:43.286Z,1.40
2023-04-05T21:48:09.885Z,1.22
2023-04-05T21:50:37.130Z,1.16
2023-04-05T21:53:05.285Z,1.08
2023-04-05T21:55:31.792Z,1.16
2023-04-05T21:57:58.425Z,1.05
2023-04-05T22:00:25.324Z,1.06
2023-04-05T22:02:51.979Z,1.09
2023-04-05T22:07:48.789Z,0.91
2023-04-05T22:10:15.435Z,0.89
2023-04-05T22:12:41.918Z,0.71
2023-04-05T22:15:08.692Z,0.72
2023-04-05T22:17:36.228Z,0.74
2023-04-05T22:20:03.048Z,0.73
2023-04-05T22:22:31.920Z,0.46
2023-04-05T22:24:58.807Z,0.43
2023-04-05T22:27:25.791Z,0.55
2023-04-05T22:29:54.285Z,0.60
2023-04-05T22:32:21.698Z,0.33
2023-04-05T22:34:48.994Z,0.73
2023-04-05T22:37:15.837Z,0.44
2023-04-05T22:39:42.299Z,0.52
2023-04-05T22:42:08.851Z,0.47
2023-04-05T22:44:36.736Z,0.41
2023-04-05T22:47:03.609Z,0.43
2023-04-05T22:49:30.706Z,0.52
2023-04-05T22:51:57.669Z,0.47
2023-04-05T22:54:24.137Z,0.51
2023-04-05T22:56:51.482Z,0.46
2023-04-05T22:59:18.101Z,0.50
2023-04-05T23:01:44.729Z,0.44
2023-04-05T23:04:11.434Z,0.26
2023-04-05T23:06:37.988Z,0.23
2023-04-05T23:09:05.816Z,0.12
2023-04-05T23:11:33.036Z,0.05
2023-04-05T23:13:59.542Z,-0.19
2023-04-05T23:16:26.485Z,0.07
2023-04-05T23:18:53.215Z,0.01
2023-04-05T23:21:19.741Z,0.02
2023-04-05T23:23:46.180Z,-0.11
2023-04-05T23:26:12.826Z,-0.01
2023-04-05T23:28:40.846Z,-0.13
2023-04-05T23:31:07.409Z,-0.03
2023-04-05T23:33:33.985Z,-0.02
2023-04-05T23:36:01.267Z,-0.08
2023-04-05T23:38:27.837Z,-0.15
2023-04-05T23:40:54.618Z,-0.13
2023-04-05T23:43:21.408Z,-0.09
2023-04-05T23:45:47.899Z,-0.12
2023-04-05T23:48:14.584Z,-0.13
2023-04-05T23:50:41.194Z,-0.11
2023-04-05T23:53:07.767Z,-0.10
2023-04-05T23:55:40.025Z,-0.29
2023-04-05T23:58:07.844Z,-0.29
